sensor_id;sensor_type;location;lat;lon;timestamp;P1;durP1;ratioP1;P2;durP2;ratioP2
70796;SDS011;63842;52.144;5.360;2024-03-25T00:00:12;13.15;;;2.03;;
70796;SDS011;63842;52.144;5.360;2024-03-25T00:02:39;8.25;;;1.75;;
70796;SDS011;63842;52.144;5.360;2024-03-25T00:05:06;11.35;;;2.38;;
70796;SDS011;63842;52.144;5.360;2024-03-25T00:07:35;8.55;;;1.63;;
70796;SDS011;63842;52.144;5.360;2024-03-25T00:10:02;9.55;;;1.40;;
70796;SDS011;63842;52.144;5.360;2024-03-25T00:12:28;9.93;;;1.50;;
70796;SDS011;63842;52.144;5.360;2024-03-25T00:14:55;11.57;;;1.70;;
70796;SDS011;63842;52.144;5.360;2024-03-25T00:17:21;11.85;;;1.85;;
70796;SDS011;63842;52.144;5.360;2024-03-25T00:19:48;10.65;;;1.70;;
70796;SDS011;63842;52.144;5.360;2024-03-25T00:22:17;11.55;;;2.10;;
70796;SDS011;63842;52.144;5.360;2024-03-25T00:24:48;10.25;;;1.88;;
70796;SDS011;63842;52.144;5.360;2024-03-25T00:27:14;11.90;;;1.77;;
70796;SDS011;63842;52.144;5.360;2024-03-25T00:29:41;10.90;;;1.83;;
70796;SDS011;63842;52.144;5.360;2024-03-25T00:32:07;12.98;;;1.98;;
70796;SDS011;63842;52.144;5.360;2024-03-25T00:34:34;14.75;;;1.70;;
70796;SDS011;63842;52.144;5.360;2024-03-25T00:37:01;13.25;;;2.30;;
70796;SDS011;63842;52.144;5.360;2024-03-25T00:39:27;12.52;;;2.15;;
70796;SDS011;63842;52.144;5.360;2024-03-25T00:41:54;8.60;;;1.65;;
70796;SDS011;63842;52.144;5.360;2024-03-25T00:44:21;16.70;;;2.03;;
70796;SDS011;63842;52.144;5.360;2024-03-25T00:46:47;10.75;;;1.88;;
70796;SDS011;63842;52.144;5.360;2024-03-25T00:49:14;12.43;;;1.85;;
70796;SDS011;63842;52.144;5.360;2024-03-25T00:51:40;10.63;;;2.05;;
70796;SDS011;63842;52.144;5.360;2024-03-25T00:54:06;12.55;;;1.63;;
70796;SDS011;63842;52.144;5.360;2024-03-25T00:56:33;14.48;;;2.08;;
70796;SDS011;63842;52.144;5.360;2024-03-25T00:58:59;13.63;;;1.70;;
70796;SDS011;63842;52.144;5.360;2024-03-25T01:03:55;11.70;;;2.20;;
70796;SDS011;63842;52.144;5.360;2024-03-25T01:06:21;9.82;;;1.77;;
70796;SDS011;63842;52.144;5.360;2024-03-25T01:08:48;13.07;;;1.98;;
70796;SDS011;63842;52.144;5.360;2024-03-25T01:11:14;9.20;;;1.73;;
70796;SDS011;63842;52.144;5.360;2024-03-25T01:13:41;12.02;;;2.13;;
70796;SDS011;63842;52.144;5.360;2024-03-25T01:16:07;7.07;;;1.70;;
70796;SDS011;63842;52.144;5.360;2024-03-25T01:18:34;10.73;;;2.05;;
70796;SDS011;63842;52.144;5.360;2024-03-25T01:21:00;10.20;;;1.85;;
70796;SDS011;63842;52.144;5.360;2024-03-25T01:23:27;11.95;;;1.90;;
70796;SDS011;63842;52.144;5.360;2024-03-25T01:25:54;8.07;;;1.80;;
70796;SDS011;63842;52.144;5.360;2024-03-25T01:28:20;12.27;;;1.58;;
70796;SDS011;63842;52.144;5.360;2024-03-25T01:30:48;10.38;;;1.60;;
70796;SDS011;63842;52.144;5.360;2024-03-25T01:33:14;10.43;;;1.80;;
70796;SDS011;63842;52.144;5.360;2024-03-25T01:35:40;9.35;;;1.70;;
70796;SDS011;63842;52.144;5.360;2024-03-25T01:38:07;10.90;;;1.75;;
70796;SDS011;63842;52.144;5.360;2024-03-25T01:40:33;9.93;;;1.73;;
70796;SDS011;63842;52.144;5.360;2024-03-25T01:43:01;9.65;;;1.65;;
70796;SDS011;63842;52.144;5.360;2024-03-25T01:45:31;14.07;;;1.80;;
70796;SDS011;63842;52.144;5.360;2024-03-25T01:47:59;13.80;;;1.85;;
70796;SDS011;63842;52.144;5.360;2024-03-25T01:50:28;11.20;;;1.83;;
70796;SDS011;63842;52.144;5.360;2024-03-25T01:52:54;12.73;;;2.28;;
70796;SDS011;63842;52.144;5.360;2024-03-25T01:55:24;15.90;;;1.98;;
70796;SDS011;63842;52.144;5.360;2024-03-25T01:57:52;11.10;;;2.00;;
70796;SDS011;63842;52.144;5.360;2024-03-25T02:00:18;11.52;;;1.85;;
70796;SDS011;63842;52.144;5.360;2024-03-25T02:02:45;12.80;;;1.90;;
70796;SDS011;63842;52.144;5.360;2024-03-25T02:05:15;11.95;;;1.70;;
70796;SDS011;63842;52.144;5.360;2024-03-25T02:07:42;13.85;;;2.05;;
70796;SDS011;63842;52.144;5.360;2024-03-25T02:10:09;13.88;;;2.55;;
70796;SDS011;63842;52.144;5.360;2024-03-25T02:12:36;9.05;;;1.73;;
70796;SDS011;63842;52.144;5.360;2024-03-25T02:15:04;11.55;;;1.67;;
70796;SDS011;63842;52.144;5.360;2024-03-25T02:17:31;10.35;;;1.70;;
70796;SDS011;63842;52.144;5.360;2024-03-25T02:19:57;13.43;;;2.47;;
70796;SDS011;63842;52.144;5.360;2024-03-25T02:22:24;10.30;;;1.90;;
70796;SDS011;63842;52.144;5.360;2024-03-25T02:24:51;11.65;;;1.95;;
70796;SDS011;63842;52.144;5.360;2024-03-25T02:27:18;14.23;;;1.67;;
70796;SDS011;63842;52.144;5.360;2024-03-25T02:29:45;14.73;;;2.20;;
70796;SDS011;63842;52.144;5.360;2024-03-25T02:32:11;12.43;;;1.60;;
70796;SDS011;63842;52.144;5.360;2024-03-25T02:34:43;11.50;;;1.90;;
70796;SDS011;63842;52.144;5.360;2024-03-25T02:37:11;9.60;;;1.80;;
70796;SDS011;63842;52.144;5.360;2024-03-25T02:39:37;16.58;;;2.33;;
70796;SDS011;63842;52.144;5.360;2024-03-25T02:42:04;10.23;;;1.58;;
70796;SDS011;63842;52.144;5.360;2024-03-25T02:44:31;10.88;;;1.95;;
70796;SDS011;63842;52.144;5.360;2024-03-25T02:46:58;11.52;;;1.73;;
70796;SDS011;63842;52.144;5.360;2024-03-25T02:49:24;11.70;;;2.33;;
70796;SDS011;63842;52.144;5.360;2024-03-25T02:51:51;11.75;;;1.83;;
70796;SDS011;63842;52.144;5.360;2024-03-25T02:54:17;9.48;;;1.98;;
70796;SDS011;63842;52.144;5.360;2024-03-25T02:56:44;10.52;;;2.03;;
70796;SDS011;63842;52.144;5.360;2024-03-25T02:59:11;11.80;;;1.98;;
70796;SDS011;63842;52.144;5.360;2024-03-25T03:01:37;11.98;;;2.00;;
70796;SDS011;63842;52.144;5.360;2024-03-25T03:04:04;7.38;;;1.90;;
70796;SDS011;63842;52.144;5.360;2024-03-25T03:06:30;13.25;;;2.28;;
70796;SDS011;63842;52.144;5.360;2024-03-25T03:08:57;12.82;;;2.22;;
70796;SDS011;63842;52.144;5.360;2024-03-25T03:11:23;9.68;;;1.75;;
70796;SDS011;63842;52.144;5.360;2024-03-25T03:13:51;10.57;;;1.85;;
70796;SDS011;63842;52.144;5.360;2024-03-25T03:16:17;8.30;;;1.83;;
70796;SDS011;63842;52.144;5.360;2024-03-25T03:18:43;9.73;;;1.88;;
70796;SDS011;63842;52.144;5.360;2024-03-25T03:21:10;12.73;;;1.80;;
70796;SDS011;63842;52.144;5.360;2024-03-25T03:23:36;10.60;;;2.10;;
70796;SDS011;63842;52.144;5.360;2024-03-25T03:26:03;10.13;;;2.10;;
70796;SDS011;63842;52.144;5.360;2024-03-25T03:28:29;8.23;;;2.38;;
70796;SDS011;63842;52.144;5.360;2024-03-25T03:30:55;9.90;;;1.77;;
70796;SDS011;63842;52.144;5.360;2024-03-25T03:33:22;10.88;;;2.00;;
70796;SDS011;63842;52.144;5.360;2024-03-25T03:35:49;11.57;;;2.13;;
70796;SDS011;63842;52.144;5.360;2024-03-25T03:38:15;11.82;;;2.10;;
70796;SDS011;63842;52.144;5.360;2024-03-25T03:40:42;9.77;;;2.28;;
70796;SDS011;63842;52.144;5.360;2024-03-25T03:43:08;8.52;;;1.73;;
70796;SDS011;63842;52.144;5.360;2024-03-25T03:45:35;11.40;;;1.98;;
70796;SDS011;63842;52.144;5.360;2024-03-25T03:48:01;12.50;;;2.38;;
70796;SDS011;63842;52.144;5.360;2024-03-25T03:50:27;12.18;;;2.15;;
70796;SDS011;63842;52.144;5.360;2024-03-25T03:52:54;11.95;;;1.90;;
70796;SDS011;63842;52.144;5.360;2024-03-25T03:55:20;11.27;;;1.98;;
70796;SDS011;63842;52.144;5.360;2024-03-25T03:57:47;11.77;;;2.22;;
70796;SDS011;63842;52.144;5.360;2024-03-25T04:00:13;12.27;;;1.90;;
70796;SDS011;63842;52.144;5.360;2024-03-25T04:02:40;9.45;;;1.73;;
70796;SDS011;63842;52.144;5.360;2024-03-25T04:05:06;11.30;;;1.83;;
70796;SDS011;63842;52.144;5.360;2024-03-25T04:07:33;10.93;;;2.30;;
70796;SDS011;63842;52.144;5.360;2024-03-25T04:10:00;12.75;;;2.40;;
70796;SDS011;63842;52.144;5.360;2024-03-25T04:12:26;9.30;;;1.70;;
70796;SDS011;63842;52.144;5.360;2024-03-25T04:14:52;10.63;;;2.03;;
70796;SDS011;63842;52.144;5.360;2024-03-25T04:17:21;7.40;;;1.80;;
70796;SDS011;63842;52.144;5.360;2024-03-25T04:19:48;8.35;;;2.35;;
70796;SDS011;63842;52.144;5.360;2024-03-25T04:22:14;13.13;;;2.25;;
70796;SDS011;63842;52.144;5.360;2024-03-25T04:24:42;15.10;;;2.35;;
70796;SDS011;63842;52.144;5.360;2024-03-25T04:27:08;11.27;;;2.40;;
70796;SDS011;63842;52.144;5.360;2024-03-25T04:29:35;8.90;;;1.90;;
70796;SDS011;63842;52.144;5.360;2024-03-25T04:32:01;10.18;;;2.20;;
70796;SDS011;63842;52.144;5.360;2024-03-25T04:34:29;12.20;;;2.13;;
70796;SDS011;63842;52.144;5.360;2024-03-25T04:36:56;8.45;;;1.98;;
70796;SDS011;63842;52.144;5.360;2024-03-25T04:39:22;11.50;;;2.17;;
70796;SDS011;63842;52.144;5.360;2024-03-25T04:41:48;12.80;;;2.20;;
70796;SDS011;63842;52.144;5.360;2024-03-25T04:44:15;11.05;;;2.08;;
70796;SDS011;63842;52.144;5.360;2024-03-25T04:46:43;8.32;;;1.83;;
70796;SDS011;63842;52.144;5.360;2024-03-25T04:49:10;9.27;;;2.40;;
70796;SDS011;63842;52.144;5.360;2024-03-25T04:51:36;11.40;;;2.17;;
70796;SDS011;63842;52.144;5.360;2024-03-25T04:54:03;8.25;;;2.08;;
70796;SDS011;63842;52.144;5.360;2024-03-25T04:56:29;10.00;;;2.17;;
70796;SDS011;63842;52.144;5.360;2024-03-25T04:58:57;12.73;;;2.17;;
70796;SDS011;63842;52.144;5.360;2024-03-25T05:01:27;8.57;;;1.92;;
70796;SDS011;63842;52.144;5.360;2024-03-25T05:03:54;10.30;;;1.90;;
70796;SDS011;63842;52.144;5.360;2024-03-25T05:06:20;8.98;;;2.00;;
70796;SDS011;63842;52.144;5.360;2024-03-25T05:08:46;9.77;;;1.83;;
70796;SDS011;63842;52.144;5.360;2024-03-25T05:11:13;11.02;;;1.77;;
70796;SDS011;63842;52.144;5.360;2024-03-25T05:13:39;9.05;;;2.08;;
70796;SDS011;63842;52.144;5.360;2024-03-25T05:16:06;7.07;;;1.80;;
70796;SDS011;63842;52.144;5.360;2024-03-25T05:18:32;11.85;;;1.92;;
70796;SDS011;63842;52.144;5.360;2024-03-25T05:20:58;13.45;;;2.30;;
70796;SDS011;63842;52.144;5.360;2024-03-25T05:23:25;16.80;;;2.85;;
70796;SDS011;63842;52.144;5.360;2024-03-25T05:25:51;13.45;;;2.67;;
70796;SDS011;63842;52.144;5.360;2024-03-25T05:28:18;10.88;;;2.40;;
70796;SDS011;63842;52.144;5.360;2024-03-25T05:30:44;11.88;;;2.35;;
70796;SDS011;63842;52.144;5.360;2024-03-25T05:33:10;11.65;;;2.60;;
70796;SDS011;63842;52.144;5.360;2024-03-25T05:35:37;12.75;;;2.63;;
70796;SDS011;63842;52.144;5.360;2024-03-25T05:38:03;12.50;;;2.50;;
70796;SDS011;63842;52.144;5.360;2024-03-25T05:40:29;13.55;;;2.60;;
70796;SDS011;63842;52.144;5.360;2024-03-25T05:42:56;10.15;;;2.50;;
70796;SDS011;63842;52.144;5.360;2024-03-25T05:45:22;13.48;;;2.72;;
70796;SDS011;63842;52.144;5.360;2024-03-25T05:47:52;13.15;;;2.63;;
70796;SDS011;63842;52.144;5.360;2024-03-25T05:52:44;13.23;;;3.15;;
70796;SDS011;63842;52.144;5.360;2024-03-25T05:55:11;10.75;;;2.72;;
70796;SDS011;63842;52.144;5.360;2024-03-25T05:57:37;14.25;;;3.15;;
70796;SDS011;63842;52.144;5.360;2024-03-25T06:00:04;15.20;;;3.35;;
70796;SDS011;63842;52.144;5.360;2024-03-25T06:02:37;13.25;;;3.30;;
70796;SDS011;63842;52.144;5.360;2024-03-25T06:05:03;12.70;;;3.00;;
70796;SDS011;63842;52.144;5.360;2024-03-25T06:07:31;12.18;;;2.97;;
70796;SDS011;63842;52.144;5.360;2024-03-25T06:09:57;12.98;;;2.53;;
70796;SDS011;63842;52.144;5.360;2024-03-25T06:12:23;12.82;;;3.10;;
70796;SDS011;63842;52.144;5.360;2024-03-25T06:14:50;15.65;;;3.47;;
70796;SDS011;63842;52.144;5.360;2024-03-25T06:17:16;17.15;;;3.20;;
70796;SDS011;63842;52.144;5.360;2024-03-25T06:19:42;12.77;;;3.03;;
70796;SDS011;63842;52.144;5.360;2024-03-25T06:22:09;15.82;;;3.03;;
70796;SDS011;63842;52.144;5.360;2024-03-25T06:24:35;10.52;;;2.67;;
70796;SDS011;63842;52.144;5.360;2024-03-25T06:27:02;13.63;;;2.78;;
70796;SDS011;63842;52.144;5.360;2024-03-25T06:29:28;13.50;;;3.03;;
70796;SDS011;63842;52.144;5.360;2024-03-25T06:31:56;11.20;;;2.97;;
70796;SDS011;63842;52.144;5.360;2024-03-25T06:34:40;12.57;;;2.92;;
70796;SDS011;63842;52.144;5.360;2024-03-25T06:37:08;12.20;;;3.15;;
70796;SDS011;63842;52.144;5.360;2024-03-25T06:39:34;9.75;;;2.70;;
70796;SDS011;63842;52.144;5.360;2024-03-25T06:42:01;17.90;;;3.80;;
70796;SDS011;63842;52.144;5.360;2024-03-25T06:44:27;17.67;;;8.23;;
70796;SDS011;63842;52.144;5.360;2024-03-25T06:46:53;13.75;;;4.93;;
70796;SDS011;63842;52.144;5.360;2024-03-25T06:49:21;15.60;;;4.22;;
70796;SDS011;63842;52.144;5.360;2024-03-25T06:51:47;10.85;;;3.42;;
70796;SDS011;63842;52.144;5.360;2024-03-25T06:54:14;16.50;;;3.95;;
70796;SDS011;63842;52.144;5.360;2024-03-25T06:56:40;12.73;;;3.75;;
70796;SDS011;63842;52.144;5.360;2024-03-25T06:59:07;15.40;;;3.85;;
70796;SDS011;63842;52.144;5.360;2024-03-25T07:01:33;11.32;;;3.20;;
70796;SDS011;63842;52.144;5.360;2024-03-25T07:03:59;14.43;;;3.65;;
70796;SDS011;63842;52.144;5.360;2024-03-25T07:06:26;14.13;;;3.40;;
70796;SDS011;63842;52.144;5.360;2024-03-25T07:08:52;11.45;;;2.90;;
70796;SDS011;63842;52.144;5.360;2024-03-25T07:11:19;10.00;;;2.78;;
70796;SDS011;63842;52.144;5.360;2024-03-25T07:18:21;9.43;;;2.58;;
70796;SDS011;63842;52.144;5.360;2024-03-25T07:20:47;11.63;;;2.63;;
70796;SDS011;63842;52.144;5.360;2024-03-25T07:23:14;13.63;;;3.00;;
70796;SDS011;63842;52.144;5.360;2024-03-25T07:25:40;16.33;;;3.08;;
70796;SDS011;63842;52.144;5.360;2024-03-25T07:28:07;13.45;;;2.80;;
70796;SDS011;63842;52.144;5.360;2024-03-25T07:30:33;10.13;;;2.42;;
70796;SDS011;63842;52.144;5.360;2024-03-25T07:32:59;16.35;;;3.05;;
70796;SDS011;63842;52.144;5.360;2024-03-25T07:35:26;12.60;;;2.90;;
70796;SDS011;63842;52.144;5.360;2024-03-25T07:37:52;14.07;;;2.75;;
70796;SDS011;63842;52.144;5.360;2024-03-25T07:40:19;13.07;;;2.60;;
70796;SDS011;63842;52.144;5.360;2024-03-25T07:42:45;12.70;;;2.65;;
70796;SDS011;63842;52.144;5.360;2024-03-25T07:45:12;10.90;;;2.45;;
70796;SDS011;63842;52.144;5.360;2024-03-25T07:47:39;12.30;;;2.67;;
70796;SDS011;63842;52.144;5.360;2024-03-25T07:50:06;13.13;;;2.70;;
70796;SDS011;63842;52.144;5.360;2024-03-25T07:52:32;11.50;;;2.67;;
70796;SDS011;63842;52.144;5.360;2024-03-25T07:55:01;11.93;;;2.90;;
70796;SDS011;63842;52.144;5.360;2024-03-25T07:57:31;13.75;;;2.55;;
70796;SDS011;63842;52.144;5.360;2024-03-25T07:59:57;10.32;;;2.10;;
70796;SDS011;63842;52.144;5.360;2024-03-25T08:02:24;13.15;;;2.35;;
70796;SDS011;63842;52.144;5.360;2024-03-25T08:04:50;12.05;;;2.70;;
70796;SDS011;63842;52.144;5.360;2024-03-25T08:07:16;13.05;;;2.70;;
70796;SDS011;63842;52.144;5.360;2024-03-25T08:09:43;10.68;;;2.50;;
70796;SDS011;63842;52.144;5.360;2024-03-25T08:12:09;9.38;;;2.17;;
70796;SDS011;63842;52.144;5.360;2024-03-25T08:14:36;14.15;;;2.42;;
70796;SDS011;63842;52.144;5.360;2024-03-25T08:17:02;8.18;;;2.00;;
70796;SDS011;63842;52.144;5.360;2024-03-25T08:19:29;12.02;;;2.20;;
70796;SDS011;63842;52.144;5.360;2024-03-25T08:21:57;10.75;;;2.00;;
70796;SDS011;63842;52.144;5.360;2024-03-25T08:24:23;9.23;;;1.83;;
70796;SDS011;63842;52.144;5.360;2024-03-25T08:26:50;11.45;;;2.15;;
70796;SDS011;63842;52.144;5.360;2024-03-25T08:29:16;12.00;;;1.90;;
70796;SDS011;63842;52.144;5.360;2024-03-25T08:31:43;10.25;;;2.08;;
70796;SDS011;63842;52.144;5.360;2024-03-25T08:34:09;14.85;;;2.60;;
70796;SDS011;63842;52.144;5.360;2024-03-25T08:36:35;13.23;;;2.08;;
70796;SDS011;63842;52.144;5.360;2024-03-25T08:39:02;15.45;;;2.00;;
70796;SDS011;63842;52.144;5.360;2024-03-25T08:41:29;12.95;;;2.80;;
70796;SDS011;63842;52.144;5.360;2024-03-25T08:43:56;11.88;;;2.75;;
70796;SDS011;63842;52.144;5.360;2024-03-25T08:46:22;13.48;;;2.03;;
70796;SDS011;63842;52.144;5.360;2024-03-25T08:48:49;12.50;;;1.90;;
70796;SDS011;63842;52.144;5.360;2024-03-25T08:51:16;10.82;;;2.65;;
70796;SDS011;63842;52.144;5.360;2024-03-25T08:53:42;9.90;;;1.95;;
70796;SDS011;63842;52.144;5.360;2024-03-25T08:56:09;11.90;;;1.98;;
70796;SDS011;63842;52.144;5.360;2024-03-25T08:58:35;9.35;;;1.90;;
70796;SDS011;63842;52.144;5.360;2024-03-25T09:01:01;9.77;;;1.52;;
70796;SDS011;63842;52.144;5.360;2024-03-25T09:03:28;10.05;;;1.65;;
70796;SDS011;63842;52.144;5.360;2024-03-25T09:05:55;12.40;;;2.20;;
70796;SDS011;63842;52.144;5.360;2024-03-25T09:08:21;12.43;;;2.00;;
70796;SDS011;63842;52.144;5.360;2024-03-25T09:10:48;13.90;;;1.80;;
70796;SDS011;63842;52.144;5.360;2024-03-25T09:13:32;9.13;;;2.35;;
70796;SDS011;63842;52.144;5.360;2024-03-25T09:15:58;13.32;;;2.42;;
70796;SDS011;63842;52.144;5.360;2024-03-25T09:18:25;11.40;;;1.90;;
70796;SDS011;63842;52.144;5.360;2024-03-25T09:20:53;12.82;;;2.42;;
70796;SDS011;63842;52.144;5.360;2024-03-25T09:23:20;9.73;;;1.80;;
70796;SDS011;63842;52.144;5.360;2024-03-25T09:25:52;14.18;;;2.40;;
70796;SDS011;63842;52.144;5.360;2024-03-25T09:28:19;8.52;;;1.83;;
70796;SDS011;63842;52.144;5.360;2024-03-25T09:30:47;13.45;;;2.53;;
70796;SDS011;63842;52.144;5.360;2024-03-25T09:33:15;13.95;;;2.38;;
70796;SDS011;63842;52.144;5.360;2024-03-25T09:35:41;17.33;;;6.20;;
70796;SDS011;63842;52.144;5.360;2024-03-25T09:38:08;19.25;;;6.15;;
70796;SDS011;63842;52.144;5.360;2024-03-25T09:40:39;17.58;;;8.50;;
70796;SDS011;63842;52.144;5.360;2024-03-25T09:43:07;17.63;;;6.38;;
70796;SDS011;63842;52.144;5.360;2024-03-25T09:45:35;12.48;;;4.50;;
70796;SDS011;63842;52.144;5.360;2024-03-25T09:48:02;11.55;;;4.03;;
70796;SDS011;63842;52.144;5.360;2024-03-25T09:50:29;12.55;;;3.33;;
70796;SDS011;63842;52.144;5.360;2024-03-25T09:52:56;15.35;;;3.80;;
70796;SDS011;63842;52.144;5.360;2024-03-25T09:55:22;13.82;;;3.65;;
70796;SDS011;63842;52.144;5.360;2024-03-25T09:57:49;14.25;;;3.50;;
70796;SDS011;63842;52.144;5.360;2024-03-25T10:00:17;10.43;;;2.70;;
70796;SDS011;63842;52.144;5.360;2024-03-25T10:02:44;10.35;;;2.72;;
70796;SDS011;63842;52.144;5.360;2024-03-25T10:05:10;14.48;;;2.90;;
70796;SDS011;63842;52.144;5.360;2024-03-25T10:07:37;16.67;;;3.13;;
70796;SDS011;63842;52.144;5.360;2024-03-25T10:10:04;9.25;;;2.72;;
70796;SDS011;63842;52.144;5.360;2024-03-25T10:12:31;12.38;;;2.42;;
70796;SDS011;63842;52.144;5.360;2024-03-25T10:14:57;12.30;;;2.60;;
70796;SDS011;63842;52.144;5.360;2024-03-25T10:17:24;9.35;;;2.60;;
70796;SDS011;63842;52.144;5.360;2024-03-25T10:19:53;9.35;;;2.13;;
70796;SDS011;63842;52.144;5.360;2024-03-25T10:22:19;10.23;;;2.40;;
70796;SDS011;63842;52.144;5.360;2024-03-25T10:24:47;11.75;;;2.28;;
70796;SDS011;63842;52.144;5.360;2024-03-25T10:27:23;8.98;;;2.58;;
70796;SDS011;63842;52.144;5.360;2024-03-25T10:29:53;9.40;;;2.40;;
70796;SDS011;63842;52.144;5.360;2024-03-25T10:32:23;9.13;;;2.60;;
70796;SDS011;63842;52.144;5.360;2024-03-25T10:34:56;12.27;;;2.63;;
70796;SDS011;63842;52.144;5.360;2024-03-25T10:37:23;9.20;;;2.25;;
70796;SDS011;63842;52.144;5.360;2024-03-25T10:39:50;7.38;;;2.50;;
70796;SDS011;63842;52.144;5.360;2024-03-25T10:42:21;10.70;;;2.88;;
70796;SDS011;63842;52.144;5.360;2024-03-25T10:44:48;10.55;;;3.15;;
70796;SDS011;63842;52.144;5.360;2024-03-25T10:47:24;15.57;;;3.20;;
70796;SDS011;63842;52.144;5.360;2024-03-25T10:49:56;10.88;;;3.00;;
70796;SDS011;63842;52.144;5.360;2024-03-25T10:52:28;11.43;;;3.25;;
70796;SDS011;63842;52.144;5.360;2024-03-25T10:54:55;9.60;;;2.97;;
70796;SDS011;63842;52.144;5.360;2024-03-25T10:57:22;12.68;;;3.83;;
70796;SDS011;63842;52.144;5.360;2024-03-25T10:59:49;14.48;;;3.83;;
70796;SDS011;63842;52.144;5.360;2024-03-25T11:02:15;11.20;;;3.40;;
70796;SDS011;63842;52.144;5.360;2024-03-25T11:04:45;13.38;;;3.58;;
70796;SDS011;63842;52.144;5.360;2024-03-25T11:07:15;11.27;;;3.53;;
70796;SDS011;63842;52.144;5.360;2024-03-25T11:09:42;11.50;;;3.40;;
70796;SDS011;63842;52.144;5.360;2024-03-25T11:12:12;10.95;;;3.60;;
70796;SDS011;63842;52.144;5.360;2024-03-25T11:14:40;11.75;;;4.03;;
70796;SDS011;63842;52.144;5.360;2024-03-25T11:17:15;12.32;;;4.47;;
70796;SDS011;63842;52.144;5.360;2024-03-25T11:19:41;13.85;;;4.13;;
70796;SDS011;63842;52.144;5.360;2024-03-25T11:22:09;10.02;;;3.38;;
70796;SDS011;63842;52.144;5.360;2024-03-25T11:24:35;14.73;;;4.00;;
70796;SDS011;63842;52.144;5.360;2024-03-25T11:27:05;11.32;;;3.50;;
70796;SDS011;63842;52.144;5.360;2024-03-25T11:29:32;11.93;;;3.75;;
70796;SDS011;63842;52.144;5.360;2024-03-25T11:32:05;12.23;;;3.92;;
70796;SDS011;63842;52.144;5.360;2024-03-25T11:34:33;11.55;;;4.10;;
70796;SDS011;63842;52.144;5.360;2024-03-25T11:37:00;12.02;;;4.50;;
70796;SDS011;63842;52.144;5.360;2024-03-25T11:39:27;14.05;;;4.20;;
70796;SDS011;63842;52.144;5.360;2024-03-25T11:41:54;15.63;;;4.05;;
70796;SDS011;63842;52.144;5.360;2024-03-25T11:44:20;12.98;;;4.07;;
70796;SDS011;63842;52.144;5.360;2024-03-25T11:46:49;11.77;;;4.25;;
70796;SDS011;63842;52.144;5.360;2024-03-25T11:49:20;12.20;;;4.60;;
70796;SDS011;63842;52.144;5.360;2024-03-25T11:51:47;12.23;;;4.28;;
70796;SDS011;63842;52.144;5.360;2024-03-25T11:54:13;11.63;;;4.30;;
70796;SDS011;63842;52.144;5.360;2024-03-25T11:56:41;11.80;;;4.00;;
70796;SDS011;63842;52.144;5.360;2024-03-25T11:59:08;13.15;;;4.10;;
70796;SDS011;63842;52.144;5.360;2024-03-25T12:01:36;10.48;;;4.40;;
70796;SDS011;63842;52.144;5.360;2024-03-25T12:04:10;13.52;;;4.78;;
70796;SDS011;63842;52.144;5.360;2024-03-25T12:06:37;16.02;;;5.07;;
70796;SDS011;63842;52.144;5.360;2024-03-25T12:09:03;13.75;;;4.75;;
70796;SDS011;63842;52.144;5.360;2024-03-25T12:11:48;12.15;;;4.55;;
70796;SDS011;63842;52.144;5.360;2024-03-25T12:14:14;11.90;;;5.10;;
70796;SDS011;63842;52.144;5.360;2024-03-25T12:16:41;14.80;;;4.68;;
70796;SDS011;63842;52.144;5.360;2024-03-25T12:19:08;13.25;;;4.75;;
70796;SDS011;63842;52.144;5.360;2024-03-25T12:21:34;15.02;;;5.05;;
70796;SDS011;63842;52.144;5.360;2024-03-25T12:24:00;19.05;;;5.85;;
70796;SDS011;63842;52.144;5.360;2024-03-25T12:26:27;15.23;;;5.90;;
70796;SDS011;63842;52.144;5.360;2024-03-25T12:28:53;18.48;;;6.35;;
70796;SDS011;63842;52.144;5.360;2024-03-25T12:31:20;14.25;;;5.47;;
70796;SDS011;63842;52.144;5.360;2024-03-25T12:33:49;11.32;;;5.30;;
70796;SDS011;63842;52.144;5.360;2024-03-25T12:36:16;11.43;;;4.85;;
70796;SDS011;63842;52.144;5.360;2024-03-25T12:38:42;10.85;;;4.38;;
70796;SDS011;63842;52.144;5.360;2024-03-25T12:41:09;10.02;;;4.15;;
70796;SDS011;63842;52.144;5.360;2024-03-25T12:43:42;12.20;;;4.70;;
70796;SDS011;63842;52.144;5.360;2024-03-25T12:46:09;14.23;;;4.80;;
70796;SDS011;63842;52.144;5.360;2024-03-25T12:48:36;12.43;;;4.43;;
70796;SDS011;63842;52.144;5.360;2024-03-25T12:51:02;12.18;;;4.07;;
70796;SDS011;63842;52.144;5.360;2024-03-25T12:53:30;11.93;;;3.95;;
70796;SDS011;63842;52.144;5.360;2024-03-25T12:55:56;11.23;;;3.85;;
70796;SDS011;63842;52.144;5.360;2024-03-25T12:58:23;12.60;;;4.25;;
70796;SDS011;63842;52.144;5.360;2024-03-25T13:00:49;9.82;;;3.30;;
70796;SDS011;63842;52.144;5.360;2024-03-25T13:03:15;9.98;;;3.70;;
70796;SDS011;63842;52.144;5.360;2024-03-25T13:05:43;12.15;;;3.70;;
70796;SDS011;63842;52.144;5.360;2024-03-25T13:08:10;10.50;;;3.17;;
70796;SDS011;63842;52.144;5.360;2024-03-25T13:10:36;10.65;;;3.22;;
70796;SDS011;63842;52.144;5.360;2024-03-25T13:13:03;9.43;;;2.90;;
70796;SDS011;63842;52.144;5.360;2024-03-25T13:15:31;9.55;;;2.75;;
70796;SDS011;63842;52.144;5.360;2024-03-25T13:17:57;8.82;;;2.70;;
70796;SDS011;63842;52.144;5.360;2024-03-25T13:20:24;9.45;;;2.95;;
70796;SDS011;63842;52.144;5.360;2024-03-25T13:22:54;8.95;;;3.08;;
70796;SDS011;63842;52.144;5.360;2024-03-25T13:25:25;11.65;;;3.08;;
70796;SDS011;63842;52.144;5.360;2024-03-25T13:27:52;7.22;;;2.55;;
70796;SDS011;63842;52.144;5.360;2024-03-25T13:30:22;9.27;;;2.63;;
70796;SDS011;63842;52.144;5.360;2024-03-25T13:32:50;8.43;;;2.40;;
70796;SDS011;63842;52.144;5.360;2024-03-25T13:35:16;8.75;;;2.47;;
70796;SDS011;63842;52.144;5.360;2024-03-25T13:37:43;7.75;;;2.38;;
70796;SDS011;63842;52.144;5.360;2024-03-25T13:40:09;7.68;;;2.42;;
70796;SDS011;63842;52.144;5.360;2024-03-25T13:42:37;8.55;;;2.40;;
70796;SDS011;63842;52.144;5.360;2024-03-25T13:45:04;7.18;;;2.30;;
70796;SDS011;63842;52.144;5.360;2024-03-25T13:47:30;8.10;;;2.42;;
70796;SDS011;63842;52.144;5.360;2024-03-25T13:50:15;9.95;;;2.30;;
70796;SDS011;63842;52.144;5.360;2024-03-25T13:52:41;8.27;;;2.28;;
70796;SDS011;63842;52.144;5.360;2024-03-25T13:55:07;7.10;;;2.50;;
70796;SDS011;63842;52.144;5.360;2024-03-25T13:57:34;9.63;;;2.58;;
70796;SDS011;63842;52.144;5.360;2024-03-25T14:00:01;8.82;;;2.97;;
70796;SDS011;63842;52.144;5.360;2024-03-25T14:02:37;9.13;;;2.83;;
70796;SDS011;63842;52.144;5.360;2024-03-25T14:05:05;12.30;;;3.42;;
70796;SDS011;63842;52.144;5.360;2024-03-25T14:07:31;9.07;;;3.30;;
70796;SDS011;63842;52.144;5.360;2024-03-25T14:09:58;8.60;;;2.83;;
70796;SDS011;63842;52.144;5.360;2024-03-25T14:12:25;8.75;;;2.88;;
70796;SDS011;63842;52.144;5.360;2024-03-25T14:14:51;12.88;;;3.20;;
70796;SDS011;63842;52.144;5.360;2024-03-25T14:17:18;9.75;;;3.05;;
70796;SDS011;63842;52.144;5.360;2024-03-25T14:19:44;9.65;;;2.90;;
70796;SDS011;63842;52.144;5.360;2024-03-25T14:22:10;9.57;;;2.80;;
70796;SDS011;63842;52.144;5.360;2024-03-25T14:24:37;9.00;;;3.10;;
70796;SDS011;63842;52.144;5.360;2024-03-25T14:27:03;8.25;;;3.33;;
70796;SDS011;63842;52.144;5.360;2024-03-25T14:29:30;11.48;;;3.35;;
70796;SDS011;63842;52.144;5.360;2024-03-25T14:31:56;7.18;;;2.78;;
70796;SDS011;63842;52.144;5.360;2024-03-25T14:34:22;10.23;;;3.10;;
70796;SDS011;63842;52.144;5.360;2024-03-25T14:36:49;9.32;;;3.03;;
70796;SDS011;63842;52.144;5.360;2024-03-25T14:39:15;8.23;;;2.53;;
70796;SDS011;63842;52.144;5.360;2024-03-25T14:41:41;10.70;;;2.55;;
70796;SDS011;63842;52.144;5.360;2024-03-25T14:44:08;8.50;;;2.92;;
70796;SDS011;63842;52.144;5.360;2024-03-25T14:46:34;9.48;;;3.22;;